Time;durP1;ratioP1;P1;durP2;ratioP2;P2;SDS_P1;SDS_P2;PMS_P1;PMS_P2;Temp;Humidity;BMP_temperature;BMP_pressure;BME280_temperature;BME280_humidity;BME280_pressure;Samples;Min_cycle;Max_cycle;Signal;HPM_P1;HPM_P2
2021/01/25 00:01:48;;;;;;;3.17;1.70;;;0.40;50.70;;;;;;5064106;28;20864;-81
2021/01/25 00:04:13;;;;;;;3.23;1.40;;;0.30;51.50;;;;;;5068232;28;20277;-81
2021/01/25 00:06:39;;;;;;;3.63;1.13;;;0.30;51.00;;;;;;5064197;28;20367;-81
2021/01/25 00:09:05;;;;;;;3.13;1.57;;;0.40;51.10;;;;;;5062984;28;20025;-81
2021/01/25 00:11:30;;;;;;;4.97;2.07;;;0.40;51.10;;;;;;5071906;28;20119;-81
2021/01/25 00:13:56;;;;;;;6.17;3.27;;;0.40;51.10;;;;;;5057757;28;20853;-81
2021/01/25 00:16:22;;;;;;;7.77;4.37;;;0.50;51.30;;;;;;5063738;28;20025;-82
2021/01/25 00:18:48;;;;;;;9.57;4.70;;;0.50;51.50;;;;;;5069806;28;20032;-81
2021/01/25 00:21:13;;;;;;;4.50;2.60;;;0.50;51.60;;;;;;5068870;28;20021;-82
2021/01/25 00:23:39;;;;;;;7.57;2.97;;;0.40;51.60;;;;;;5055436;28;20021;-82
2021/01/25 00:26:05;;;;;;;4.07;2.40;;;0.40;51.70;;;;;;5061825;28;20075;-82
2021/01/25 00:28:30;;;;;;;5.57;2.30;;;0.40;51.80;;;;;;5067138;28;20038;-81
2021/01/25 00:30:57;;;;;;;4.53;2.53;;;0.30;52.00;;;;;;5038323;28;660863;-82
2021/01/25 00:33:22;;;;;;;5.80;2.57;;;0.30;52.10;;;;;;5066980;28;20021;-82
2021/01/25 00:35:48;;;;;;;4.10;2.10;;;0.30;52.20;;;;;;5074010;28;20293;-82
2021/01/25 00:38:14;;;;;;;4.80;2.10;;;0.30;52.40;;;;;;5061302;28;20040;-81
2021/01/25 00:40:40;;;;;;;6.57;2.43;;;0.20;52.50;;;;;;5069234;28;20526;-81
2021/01/25 00:43:06;;;;;;;5.40;2.23;;;0.30;52.40;;;;;;5061077;28;20112;-81
2021/01/25 00:45:32;;;;;;;5.27;2.20;;;0.20;52.10;;;;;;5065685;28;20654;-81
2021/01/25 00:47:57;;;;;;;4.10;1.83;;;0.10;52.00;;;;;;5068776;28;20277;-81
2021/01/25 00:50:23;;;;;;;2.80;1.70;;;0.10;52.10;;;;;;5070983;28;20024;-82
2021/01/25 00:52:49;;;;;;;3.33;1.73;;;0.10;52.10;;;;;;5057292;28;20175;-82
2021/01/25 00:55:16;;;;;;;8.43;2.30;;;0.10;52.10;;;;;;5085333;28;20005;-81
2021/01/25 00:57:42;;;;;;;4.30;1.67;;;0.10;52.30;;;;;;5059046;28;20276;-81
2021/01/25 01:00:10;;;;;;;4.27;2.10;;;0.10;52.30;;;;;;5057607;28;20291;-81
2021/01/25 01:02:36;;;;;;;2.53;1.30;;;0.00;52.30;;;;;;5049500;28;20385;-81
2021/01/25 01:05:04;;;;;;;2.97;0.90;;;0.00;52.30;;;;;;5067961;28;20275;-81
2021/01/25 01:07:30;;;;;;;3.53;1.37;;;0.00;52.20;;;;;;5070106;28;20279;-81
2021/01/25 01:09:55;;;;;;;4.10;1.47;;;-0.10;52.20;;;;;;5055044;28;20314;-81
2021/01/25 01:12:21;;;;;;;3.97;1.70;;;-0.10;52.20;;;;;;5068537;28;20028;-81
2021/01/25 01:14:47;;;;;;;3.23;1.67;;;-0.20;52.40;;;;;;5066187;28;20083;-81
2021/01/25 01:17:12;;;;;;;3.10;1.67;;;-0.20;52.50;;;;;;5066547;28;20047;-81
2021/01/25 01:19:38;;;;;;;7.73;1.67;;;-0.10;52.50;;;;;;5081160;28;20444;-81
2021/01/25 01:22:04;;;;;;;3.43;1.70;;;-0.10;52.70;;;;;;5065047;28;20032;-81
2021/01/25 01:24:29;;;;;;;5.40;1.70;;;-0.10;52.80;;;;;;5055514;28;20051;-81
2021/01/25 01:26:55;;;;;;;2.23;1.07;;;0.00;53.10;;;;;;5063869;28;20032;-81
2021/01/25 01:29:20;;;;;;;4.73;1.43;;;0.00;52.70;;;;;;5070612;28;20024;-81
2021/01/25 01:31:46;;;;;;;5.13;1.70;;;0.00;52.70;;;;;;5072314;28;20040;-81
2021/01/25 01:34:12;;;;;;;8.07;3.57;;;0.00;52.50;;;;;;5060793;28;20125;-81
2021/01/25 01:36:38;;;;;;;10.80;4.83;;;0.00;52.40;;;;;;5063541;28;20024;-81
2021/01/25 01:39:04;;;;;;;9.87;4.90;;;0.00;52.50;;;;;;5062866;28;20021;-81
2021/01/25 01:41:40;;;;;;;13.03;4.90;;;0.10;52.70;;;;;;5060109;28;20514;-81
2021/01/25 01:44:14;;;;;;;7.33;3.80;;;0.00;52.70;;;;;;5067593;28;20326;-81
2021/01/25 01:46:42;;;;;;;4.30;2.03;;;-0.10;52.90;;;;;;5073462;28;20282;-81
2021/01/25 01:49:10;;;;;;;3.93;1.87;;;-0.10;52.90;;;;;;5063924;28;20371;-81
2021/01/25 01:51:37;;;;;;;5.17;1.67;;;-0.20;52.90;;;;;;5067909;28;20888;-81
2021/01/25 01:54:04;;;;;;;2.80;1.87;;;-0.20;52.60;;;;;;5069611;28;20290;-82
2021/01/25 01:56:29;;;;;;;2.47;1.50;;;-0.20;52.50;;;;;;5065174;28;20288;-81
2021/01/25 01:58:55;;;;;;;3.33;1.40;;;-0.30;52.40;;;;;;5067228;28;20895;-81
2021/01/25 02:01:21;;;;;;;3.30;1.60;;;-0.30;52.60;;;;;;5069972;28;20031;-82
2021/01/25 02:03:47;;;;;;;5.13;1.80;;;-0.40;52.50;;;;;;5066011;28;20017;-81
2021/01/25 02:06:14;;;;;;;4.00;2.00;;;-0.40;52.50;;;;;;5064930;28;20028;-81
2021/01/25 02:08:41;;;;;;;5.83;2.23;;;-0.50;52.60;;;;;;5064023;28;20013;-81
2021/01/25 02:11:08;;;;;;;5.93;1.50;;;-0.50;52.80;;;;;;5064128;28;20309;-82
2021/01/25 02:13:34;;;;;;;3.90;1.83;;;-0.50;52.70;;;;;;5070912;28;20267;-81
2021/01/25 02:16:01;;;;;;;5.23;2.20;;;-0.60;52.50;;;;;;5061486;28;20335;-81
2021/01/25 02:18:33;;;;;;;2.77;1.60;;;-0.60;52.80;;;;;;5068991;28;20333;-82
2021/01/25 02:21:04;;;;;;;5.53;1.90;;;-0.70;52.70;;;;;;5071940;28;20357;-81
2021/01/25 02:24:04;;;;;;;3.30;1.43;;;-0.70;52.70;;;;;;5063704;28;20426;-81
2021/01/25 02:26:46;;;;;;;12.50;4.10;;;-0.80;52.90;;;;;;5061903;28;20358;-81
2021/01/25 02:29:12;;;;;;;33.13;16.42;;;-0.80;53.10;;;;;;5063556;28;20275;-81
2021/01/25 02:31:39;;;;;;;30.57;14.30;;;-0.70;53.10;;;;;;5058639;28;20098;-81
2021/01/25 02:34:06;;;;;;;17.07;8.20;;;-0.70;53.10;;;;;;5066958;28;20454;-81
2021/01/25 02:36:33;;;;;;;8.03;4.30;;;-0.60;53.10;;;;;;5069539;28;20283;-81
2021/01/25 02:39:01;;;;;;;4.83;3.07;;;-0.60;53.10;;;;;;5063489;28;20322;-82
2021/01/25 02:41:28;;;;;;;3.90;1.73;;;-0.50;53.00;;;;;;5067001;28;20279;-82
2021/01/25 02:43:56;;;;;;;5.03;1.77;;;-0.50;53.30;;;;;;5061379;28;20769;-82
2021/01/25 02:46:23;;;;;;;3.13;1.10;;;-0.60;52.70;;;;;;5069356;28;20271;-82
2021/01/25 02:48:49;;;;;;;3.37;1.60;;;-0.80;52.90;;;;;;5072363;28;20399;-82
2021/01/25 02:51:15;;;;;;;3.87;1.70;;;-0.80;53.10;;;;;;5072051;28;20809;-82
2021/01/25 02:53:40;;;;;;;4.70;1.30;;;-0.80;53.10;;;;;;5062008;28;20029;-81
2021/01/25 02:56:08;;;;;;;7.03;2.00;;;-0.70;53.00;;;;;;5066649;28;20105;-81
2021/01/25 02:58:35;;;;;;;4.17;1.53;;;-0.80;52.90;;;;;;5072981;28;20079;-82
2021/01/25 03:01:01;;;;;;;4.73;1.10;;;-0.80;52.80;;;;;;5071833;28;20428;-81
2021/01/25 03:03:29;;;;;;;3.67;1.37;;;-0.80;52.70;;;;;;5069629;28;20369;-82
2021/01/25 03:05:57;;;;;;;3.67;1.77;;;-0.80;52.70;;;;;;5064470;28;20479;-82
2021/01/25 03:08:27;;;;;;;3.63;1.60;;;-0.90;52.80;;;;;;5072218;28;20371;-82
2021/01/25 03:10:53;;;;;;;4.57;1.60;;;-0.90;52.90;;;;;;5064781;28;20285;-82
2021/01/25 03:13:25;;;;;;;4.63;1.73;;;-0.90;52.80;;;;;;5059508;28;20306;-83
2021/01/25 03:15:55;;;;;;;3.05;1.10;;;-1.10;52.80;;;;;;5072780;28;20283;-82
2021/01/25 03:18:21;;;;;;;1.67;0.83;;;-1.20;52.90;;;;;;5067923;28;20041;-82
2021/01/25 03:20:49;;;;;;;2.80;1.03;;;-1.20;53.40;;;;;;5070822;28;20275;-83
2021/01/25 03:23:15;;;;;;;3.07;1.20;;;-1.10;53.90;;;;;;5065898;28;20283;-82
2021/01/25 03:25:41;;;;;;;2.00;0.83;;;-1.00;53.70;;;;;;5073832;28;20290;-82
2021/01/25 03:28:07;;;;;;;3.77;0.97;;;-0.80;53.80;;;;;;5064389;28;20293;-82
2021/01/25 03:30:32;;;;;;;2.20;0.80;;;-0.80;53.30;;;;;;5070145;28;20116;-82
2021/01/25 03:32:58;;;;;;;3.63;1.27;;;-0.90;53.20;;;;;;5072631;28;20048;-83
2021/01/25 03:35:24;;;;;;;2.03;1.20;;;-0.90;52.90;;;;;;5064234;28;20487;-83
2021/01/25 03:37:49;;;;;;;2.83;0.90;;;-0.90;52.80;;;;;;5069285;28;20078;-83
2021/01/25 03:40:15;;;;;;;5.10;1.10;;;-0.80;52.80;;;;;;5077258;28;20457;-83
2021/01/25 03:42:41;;;;;;;2.93;1.00;;;-0.80;52.70;;;;;;5068972;28;20021;-83
2021/01/25 03:45:07;;;;;;;6.07;1.50;;;-0.80;52.70;;;;;;5064948;28;20122;-82
2021/01/25 03:47:33;;;;;;;5.33;1.80;;;-0.80;52.50;;;;;;5075157;28;20489;-82
2021/01/25 03:49:59;;;;;;;5.10;1.47;;;-0.90;52.20;;;;;;5074561;28;20302;-82
2021/01/25 03:52:25;;;;;;;4.47;1.73;;;-0.90;52.20;;;;;;5075711;28;20031;-82
2021/01/25 03:54:51;;;;;;;5.13;1.77;;;-1.00;52.10;;;;;;5068014;28;20032;-82
2021/01/25 03:57:18;;;;;;;4.80;1.53;;;-1.00;52.10;;;;;;5067290;28;20308;-83
2021/01/25 03:59:43;;;;;;;5.07;2.10;;;-1.00;52.20;;;;;;5068284;28;20280;-83
2021/01/25 04:02:12;;;;;;;4.90;1.80;;;-0.90;52.20;;;;;;5058605;28;20275;-83
2021/01/25 04:04:38;;;;;;;3.20;1.70;;;-0.90;52.10;;;;;;5067499;28;20036;-82
2021/01/25 04:07:04;;;;;;;8.50;2.27;;;-0.90;52.00;;;;;;5063871;28;20284;-82
2021/01/25 04:09:29;;;;;;;5.77;2.97;;;-0.80;51.90;;;;;;5061946;28;20033;-82
2021/01/25 04:11:55;;;;;;;7.93;3.00;;;-0.90;51.90;;;;;;5072231;28;20031;-82
2021/01/25 04:14:21;;;;;;;13.47;3.67;;;-0.90;52.00;;;;;;5065896;28;20047;-82
2021/01/25 04:16:46;;;;;;;6.77;3.70;;;-0.90;52.00;;;;;;5063810;28;20029;-82
2021/01/25 04:19:12;;;;;;;6.70;3.33;;;-0.90;52.10;;;;;;5063264;28;20028;-82
2021/01/25 04:21:39;;;;;;;6.73;3.13;;;-0.80;52.20;;;;;;5063828;28;20606;-82
2021/01/25 04:24:05;;;;;;;8.67;4.67;;;-0.80;52.20;;;;;;5068786;28;20080;-82
2021/01/25 04:26:31;;;;;;;13.30;5.20;;;-0.80;52.30;;;;;;5064988;28;20272;-83
2021/01/25 04:28:57;;;;;;;10.60;4.67;;;-0.80;52.00;;;;;;5070102;28;20293;-83
2021/01/25 04:31:22;;;;;;;12.53;3.30;;;-0.80;52.10;;;;;;5071936;28;20055;-82
2021/01/25 04:33:48;;;;;;;7.90;2.80;;;-0.80;52.10;;;;;;5059608;28;20114;-82
2021/01/25 04:36:14;;;;;;;7.70;2.57;;;-0.70;52.10;;;;;;5063720;28;20017;-82
2021/01/25 04:38:39;;;;;;;6.60;2.60;;;-0.80;52.00;;;;;;5070822;28;20042;-82
2021/01/25 04:41:06;;;;;;;8.07;2.23;;;-0.80;52.00;;;;;;5067162;28;20471;-82
2021/01/25 04:43:32;;;;;;;11.37;2.90;;;-0.90;52.10;;;;;;5067667;28;20028;-82
2021/01/25 04:45:58;;;;;;;9.27;3.33;;;-0.90;52.50;;;;;;5071952;28;20309;-82
2021/01/25 04:48:30;;;;;;;6.83;2.53;;;-0.80;52.50;;;;;;5069135;28;20021;-82
2021/01/25 04:50:59;;;;;;;5.50;2.60;;;-0.90;52.30;;;;;;5045854;28;20294;-83
2021/01/25 04:53:25;;;;;;;3.83;1.47;;;-0.80;52.60;;;;;;5070146;28;20279;-82
2021/01/25 04:55:51;;;;;;;6.77;1.63;;;-0.80;52.30;;;;;;5065191;28;20332;-82
2021/01/25 04:58:18;;;;;;;5.67;2.33;;;-0.80;52.20;;;;;;5074513;28;20278;-82
2021/01/25 05:00:44;;;;;;;11.97;4.80;;;-0.80;52.20;;;;;;5084350;28;20021;-82
2021/01/25 05:03:10;;;;;;;7.03;2.90;;;-0.80;52.20;;;;;;5064951;28;20473;-82
2021/01/25 05:05:36;;;;;;;10.73;3.00;;;-0.70;52.20;;;;;;5064496;28;20813;-82
2021/01/25 05:08:01;;;;;;;7.23;2.40;;;-0.70;52.20;;;;;;5061592;28;20033;-82
2021/01/25 05:10:29;;;;;;;10.40;1.60;;;-0.70;52.20;;;;;;5066321;28;20051;-81
2021/01/25 05:12:54;;;;;;;9.77;1.97;;;-0.60;52.40;;;;;;5069384;28;20017;-82
2021/01/25 05:15:26;;;;;;;9.80;1.97;;;-0.60;52.30;;;;;;5058491;28;20296;-82
2021/01/25 05:17:53;;;;;;;4.60;1.03;;;-0.50;52.20;;;;;;5057034;28;20036;-81
2021/01/25 05:20:23;;;;;;;7.40;2.23;;;-0.50;52.10;;;;;;5068701;28;20318;-81
2021/01/25 05:22:52;;;;;;;7.17;1.80;;;-0.50;51.90;;;;;;5055897;28;20283;-82
2021/01/25 05:25:28;;;;;;;14.20;3.60;;;-0.50;52.00;;;;;;5069293;28;20285;-82
2021/01/25 05:27:55;;;;;;;14.33;6.53;;;-0.50;51.90;;;;;;5063917;28;20340;-83
2021/01/25 05:30:21;;;;;;;9.67;4.70;;;-0.50;51.80;;;;;;5065067;28;20282;-83
2021/01/25 05:32:49;;;;;;;9.17;4.00;;;-0.50;51.80;;;;;;5068605;28;20299;-83
2021/01/25 05:35:21;;;;;;;14.73;2.87;;;-0.50;51.80;;;;;;5066830;28;20290;-83
2021/01/25 05:38:02;;;;;;;8.50;2.05;;;-0.50;51.70;;;;;;5063202;28;20914;-83
2021/01/25 05:40:30;;;;;;;5.07;1.87;;;-0.50;51.70;;;;;;5063680;28;20036;-82
2021/01/25 05:42:56;;;;;;;3.90;1.83;;;-0.50;51.70;;;;;;5070429;28;20282;-82
2021/01/25 05:45:23;;;;;;;6.47;2.37;;;-0.50;51.90;;;;;;5063006;28;20682;-82
2021/01/25 05:47:52;;;;;;;8.20;3.30;;;-0.40;52.10;;;;;;5072374;28;20271;-82
2021/01/25 05:50:29;;;;;;;10.93;3.57;;;-0.40;52.10;;;;;;5066563;28;20276;-83
2021/01/25 05:52:57;;;;;;;7.57;3.43;;;-0.50;52.10;;;;;;5057106;28;20429;-83
2021/01/25 05:55:23;;;;;;;13.13;3.73;;;-0.40;52.10;;;;;;5062377;28;20276;-82
2021/01/25 05:57:49;;;;;;;15.50;4.80;;;-0.40;51.80;;;;;;5064259;28;20776;-82
2021/01/25 06:00:15;;;;;;;14.30;4.30;;;-0.40;52.00;;;;;;5062448;28;20284;-82
2021/01/25 06:02:46;;;;;;;12.17;3.60;;;-0.40;51.80;;;;;;5071574;28;20112;-82
2021/01/25 06:05:33;;;;;;;11.73;3.47;;;-0.30;51.80;;;;;;5058391;28;20267;-83
2021/01/25 06:08:16;;;;;;;13.50;3.70;;;-0.40;51.70;;;;;;5062971;28;20270;-83
2021/01/25 06:10:54;;;;;;;21.67;3.95;;;-0.40;51.70;;;;;;5056654;28;20277;-83
2021/01/25 06:13:27;;;;;;;12.40;3.20;;;-0.50;51.70;;;;;;5065142;28;20793;-83
2021/01/25 06:15:53;;;;;;;;;;;-0.40;51.70;;;;;;5068877;28;20289;-83
2021/01/25 06:18:21;;;;;;;11.73;4.17;;;-0.40;51.80;;;;;;5062056;28;19935;-82
2021/01/25 06:20:50;;;;;;;14.50;4.70;;;-0.40;51.40;;;;;;5053060;28;20310;-82
2021/01/25 06:23:19;;;;;;;16.93;3.90;;;-0.50;51.50;;;;;;5064366;28;20282;-82
2021/01/25 06:25:47;;;;;;;15.07;4.60;;;-0.40;51.60;;;;;;5055622;28;20271;-82
2021/01/25 06:28:15;;;;;;;19.20;8.23;;;-0.40;51.70;;;;;;5066483;28;20370;-82
2021/01/25 06:30:46;;;;;;;10.10;5.93;;;-0.40;51.70;;;;;;5058898;28;20428;-82
2021/01/25 06:33:18;;;;;;;15.23;5.43;;;-0.30;51.80;;;;;;5060750;28;20297;-82
2021/01/25 06:35:51;;;;;;;24.50;6.37;;;-0.30;51.70;;;;;;5058672;28;20263;-82
2021/01/25 06:38:21;;;;;;;18.30;9.23;;;-0.30;51.60;;;;;;5062329;28;20259;-82
2021/01/25 06:40:49;;;;;;;28.40;13.57;;;-0.30;51.60;;;;;;5061391;28;20275;-82
2021/01/25 06:43:17;;;;;;;12.30;7.30;;;-0.40;51.70;;;;;;5068027;28;20278;-83
2021/01/25 06:45:45;;;;;;;17.90;8.87;;;-0.50;51.80;;;;;;5064128;28;20279;-82
2021/01/25 06:48:12;;;;;;;8.23;4.07;;;-0.40;52.20;;;;;;5062957;28;20282;-82
2021/01/25 06:50:38;;;;;;;10.17;5.30;;;-0.50;52.10;;;;;;5064434;28;20267;-82
2021/01/25 06:53:04;;;;;;;15.37;4.33;;;-0.50;52.10;;;;;;5054366;28;20321;-82
2021/01/25 06:55:33;;;;;;;13.13;5.17;;;-0.50;52.10;;;;;;5072040;28;20108;-82
2021/01/25 06:58:04;;;;;;;13.00;5.10;;;-0.60;52.20;;;;;;5060820;28;20344;-82
2021/01/25 07:00:33;;;;;;;21.03;7.23;;;-0.50;52.50;;;;;;5068697;28;20628;-83
2021/01/25 07:03:02;;;;;;;17.67;7.37;;;-0.40;52.70;;;;;;5067725;28;20302;-83
2021/01/25 07:05:33;;;;;;;35.50;12.40;;;-0.30;52.40;;;;;;5072720;28;20707;-83
2021/01/25 07:08:18;;;;;;;26.43;8.70;;;-0.30;52.30;;;;;;5068085;28;20620;-83
2021/01/25 07:10:54;;;;;;;25.43;9.30;;;-0.30;52.40;;;;;;5064117;28;20632;-82
2021/01/25 07:13:26;;;;;;;17.37;9.73;;;-0.30;52.20;;;;;;5066542;28;20279;-83
2021/01/25 07:15:52;;;;;;;31.03;7.97;;;-0.20;52.20;;;;;;5060661;28;20730;-83
2021/01/25 07:18:19;;;;;;;28.17;8.23;;;-0.20;52.10;;;;;;5068971;28;20275;-82
2021/01/25 07:20:50;;;;;;;19.67;8.23;;;-0.20;51.90;;;;;;5065207;28;20514;-82
2021/01/25 07:23:18;;;;;;;18.57;6.90;;;-0.20;52.10;;;;;;5065711;28;20282;-82
2021/01/25 07:25:59;;;;;;;15.33;5.73;;;-0.20;52.10;;;;;;5064486;28;20290;-82
2021/01/25 07:28:27;;;;;;;15.60;5.90;;;-0.20;52.30;;;;;;5062829;28;20291;-82
2021/01/25 07:30:53;;;;;;;38.03;6.80;;;-0.20;52.10;;;;;;5068508;28;20357;-83
2021/01/25 07:33:20;;;;;;;14.57;4.83;;;-0.20;52.00;;;;;;5060502;28;21063;-83
2021/01/25 07:35:46;;;;;;;12.20;4.60;;;-0.20;52.20;;;;;;5065549;28;20290;-83
2021/01/25 07:38:13;;;;;;;8.97;4.43;;;-0.20;52.10;;;;;;5064720;28;20317;-83
2021/01/25 07:40:39;;;;;;;14.43;4.37;;;-0.30;51.90;;;;;;5064998;28;20286;-83
2021/01/25 07:43:06;;;;;;;10.90;5.17;;;-0.20;51.90;;;;;;5066301;28;20279;-82
2021/01/25 07:45:34;;;;;;;11.70;4.97;;;-0.20;51.90;;;;;;5063871;28;20606;-82
2021/01/25 07:48:00;;;;;;;10.77;5.10;;;-0.20;51.70;;;;;;5059056;28;20279;-82
2021/01/25 07:50:26;;;;;;;14.10;4.60;;;-0.20;51.70;;;;;;5069335;28;20289;-82
2021/01/25 07:53:02;;;;;;;13.37;3.70;;;-0.20;51.40;;;;;;5072227;28;20056;-82
2021/01/25 07:55:30;;;;;;;11.90;3.97;;;-0.20;51.50;;;;;;5062206;28;20037;-82
2021/01/25 07:58:07;;;;;;;22.47;5.63;;;-0.20;51.40;;;;;;5063349;28;20291;-82
2021/01/25 08:00:33;;;;;;;19.73;4.77;;;-0.20;51.70;;;;;;5063353;28;20294;-82
2021/01/25 08:03:12;;;;;;;12.37;5.00;;;-0.20;51.80;;;;;;5064507;28;20405;-82
2021/01/25 08:05:39;;;;;;;16.97;6.10;;;-0.10;51.70;;;;;;5059434;28;20693;-83
2021/01/25 08:08:09;;;;;;;17.57;7.07;;;0.00;51.70;;;;;;5063499;28;20330;-83
2021/01/25 08:10:35;;;;;;;15.80;7.13;;;0.00;51.60;;;;;;5062001;28;20290;-83
2021/01/25 08:13:17;;;;;;;16.80;6.13;;;0.00;51.60;;;;;;5071009;28;20271;-83
2021/01/25 08:16:14;;;;;;;25.92;7.65;;;0.10;51.60;;;;;;5068811;28;20300;-83
2021/01/25 08:19:05;;;;;;;14.00;5.63;;;0.20;51.40;;;;;;5057510;28;20033;-83
2021/01/25 08:21:35;;;;;;;26.93;10.80;;;0.20;51.10;;;;;;5063823;28;20390;-83
2021/01/25 08:24:04;;;;;;;25.80;10.63;;;0.20;51.10;;;;;;5060204;28;20272;-83
2021/01/25 08:26:31;;;;;;;16.37;5.40;;;0.30;51.10;;;;;;5087593;28;20369;-83
2021/01/25 08:29:01;;;;;;;14.53;4.57;;;0.30;50.70;;;;;;5086258;28;20271;-83
2021/01/25 08:31:41;;;;;;;11.83;4.90;;;0.30;50.40;;;;;;5064080;28;20295;-83
2021/01/25 08:34:30;;;;;;;12.43;5.10;;;0.30;50.40;;;;;;5064991;28;20291;-83
2021/01/25 08:37:08;;;;;;;19.37;6.53;;;0.40;50.30;;;;;;5054620;28;20330;-82
2021/01/25 08:39:54;;;;;;;18.40;7.50;;;0.40;50.30;;;;;;5062107;28;20290;-83
2021/01/25 08:42:30;;;;;;;19.77;6.77;;;0.40;50.20;;;;;;5064846;28;20769;-82
2021/01/25 08:45:12;;;;;;;21.60;8.33;;;0.50;50.30;;;;;;5058788;28;20870;-83
2021/01/25 08:47:39;;;;;;;13.87;6.20;;;0.60;50.30;;;;;;5065952;28;20299;-83
2021/01/25 08:50:27;;;;;;;13.20;5.30;;;0.80;50.30;;;;;;5065622;28;20583;-83
2021/01/25 08:53:07;;;;;;;17.67;5.53;;;0.80;49.60;;;;;;5063120;28;20827;-83
2021/01/25 08:55:54;;;;;;;9.53;4.70;;;0.80;49.70;;;;;;5066697;28;20321;-83
2021/01/25 08:58:29;;;;;;;7.60;3.63;;;0.90;49.40;;;;;;5056807;28;20283;-83
2021/01/25 09:00:58;;;;;;;12.03;3.73;;;0.90;49.20;;;;;;5070122;28;20293;-83
2021/01/25 09:03:25;;;;;;;8.33;3.57;;;0.90;49.20;;;;;;5071054;28;20289;-83
2021/01/25 09:05:52;;;;;;;9.27;3.90;;;0.90;49.30;;;;;;5066156;28;20278;-83
2021/01/25 09:08:19;;;;;;;11.43;3.93;;;1.00;49.20;;;;;;5061003;28;21119;-83
2021/01/25 09:10:45;;;;;;;14.63;4.43;;;1.00;49.20;;;;;;5069740;28;20737;-83
2021/01/25 09:13:11;;;;;;;9.57;4.47;;;1.00;49.00;;;;;;5068776;28;20333;-83
2021/01/25 09:15:36;;;;;;;15.73;4.33;;;1.00;49.10;;;;;;5068502;28;20027;-83
2021/01/25 09:18:02;;;;;;;14.33;4.33;;;1.00;49.10;;;;;;5064339;28;20020;-83
2021/01/25 09:20:28;;;;;;;16.60;5.20;;;1.20;49.10;;;;;;5066687;28;20040;-83
2021/01/25 09:22:53;;;;;;;16.23;5.10;;;1.40;49.10;;;;;;5059072;28;20025;-83
2021/01/25 09:25:21;;;;;;;16.37;4.63;;;1.50;48.80;;;;;;5069692;28;20036;-83
2021/01/25 09:27:47;;;;;;;22.60;6.03;;;1.70;48.80;;;;;;5059896;28;20067;-83
2021/01/25 09:30:15;;;;;;;35.70;6.37;;;2.00;48.60;;;;;;5064385;28;20036;-83
2021/01/25 09:32:41;;;;;;;26.27;5.53;;;2.20;48.50;;;;;;5067889;28;20091;-83
2021/01/25 09:35:10;;;;;;;21.80;5.27;;;2.30;48.20;;;;;;5060072;28;20064;-83
2021/01/25 09:37:35;;;;;;;28.57;4.73;;;2.50;48.30;;;;;;5069657;28;20394;-83
2021/01/25 09:40:01;;;;;;;16.53;5.17;;;2.60;48.20;;;;;;5061972;28;20109;-83
2021/01/25 09:42:27;;;;;;;20.57;6.47;;;2.70;48.00;;;;;;5063552;28;20526;-83
2021/01/25 09:44:53;;;;;;;25.27;7.13;;;2.70;47.80;;;;;;5057082;28;20112;-83
2021/01/25 09:47:18;;;;;;;29.17;7.50;;;2.80;47.80;;;;;;5055172;28;20123;-83
2021/01/25 09:49:44;;;;;;;25.27;6.70;;;3.00;47.70;;;;;;5067043;28;20051;-83
2021/01/25 09:52:10;;;;;;;19.57;7.27;;;3.00;47.50;;;;;;5067918;28;20054;-83
2021/01/25 09:54:38;;;;;;;29.07;6.30;;;3.00;47.30;;;;;;5062508;28;20134;-83
2021/01/25 09:57:03;;;;;;;20.13;5.33;;;3.00;47.10;;;;;;5062310;28;20128;-83
2021/01/25 09:59:29;;;;;;;27.13;7.40;;;3.00;46.80;;;;;;5066300;28;20135;-83
2021/01/25 10:01:55;;;;;;;21.60;6.23;;;2.90;46.30;;;;;;5069592;28;20032;-83
2021/01/25 10:04:20;;;;;;;19.80;5.87;;;3.00;46.50;;;;;;5063481;28;20052;-83
2021/01/25 10:06:46;;;;;;;27.17;6.17;;;3.00;46.20;;;;;;5068562;28;20028;-83
2021/01/25 10:09:12;;;;;;;16.33;4.93;;;3.00;46.20;;;;;;5071998;28;20082;-83
2021/01/25 10:11:38;;;;;;;17.00;5.57;;;3.10;46.10;;;;;;5062746;28;20043;-83
2021/01/25 10:14:03;;;;;;;22.07;5.70;;;3.30;45.80;;;;;;5064256;28;20087;-83
2021/01/25 10:16:29;;;;;;;16.77;5.10;;;3.30;45.60;;;;;;5055665;28;20877;-83
2021/01/25 10:18:55;;;;;;;7.23;3.90;;;3.30;45.50;;;;;;5067468;28;20041;-83
2021/01/25 10:21:21;;;;;;;13.57;4.40;;;3.30;45.60;;;;;;5054974;28;20031;-85
2021/01/25 10:23:47;;;;;;;30.17;4.90;;;3.30;45.10;;;;;;5075313;28;20471;-83
2021/01/25 10:26:13;;;;;;;19.50;4.87;;;3.40;45.00;;;;;;5075234;28;20043;-83
2021/01/25 10:28:39;;;;;;;23.53;5.03;;;3.40;45.00;;;;;;5074158;28;20494;-83
2021/01/25 10:31:05;;;;;;;29.70;5.73;;;3.40;45.00;;;;;;5064073;28;20064;-83
2021/01/25 10:33:31;;;;;;;16.70;5.67;;;3.50;45.00;;;;;;5071654;28;20075;-83
2021/01/25 10:35:56;;;;;;;19.07;5.80;;;3.50;44.90;;;;;;5074272;28;20040;-85
2021/01/25 10:38:22;;;;;;;13.83;6.40;;;3.50;44.80;;;;;;5068800;28;20029;-84
2021/01/25 10:40:48;;;;;;;25.20;4.43;;;3.60;44.90;;;;;;5070946;28;20469;-84
2021/01/25 10:43:14;;;;;;;25.33;4.50;;;3.70;45.40;;;;;;5062795;28;20031;-84
2021/01/25 10:45:39;;;;;;;10.73;3.97;;;3.70;44.60;;;;;;5062776;28;20028;-83
2021/01/25 10:48:05;;;;;;;13.07;3.90;;;3.80;44.50;;;;;;5072944;28;20154;-85
2021/01/25 10:50:31;;;;;;;14.37;4.43;;;3.80;44.20;;;;;;5072864;28;20032;-83
2021/01/25 10:52:57;;;;;;;15.07;4.80;;;3.80;44.10;;;;;;5063661;28;20020;-83
2021/01/25 10:55:22;;;;;;;25.73;4.73;;;3.80;43.90;;;;;;5066925;28;20613;-83
2021/01/25 10:57:48;;;;;;;20.13;4.83;;;3.80;43.90;;;;;;5065125;28;20033;-83
2021/01/25 11:00:19;;;;;;;21.83;4.50;;;4.00;44.00;;;;;;5069038;28;20115;-82
2021/01/25 11:02:46;;;;;;;16.40;4.50;;;4.00;43.70;;;;;;5067600;28;20096;-82
2021/01/25 11:05:21;;;;;;;26.03;4.67;;;4.10;43.80;;;;;;5073372;28;20074;-83
2021/01/25 11:07:47;;;;;;;18.90;4.13;;;4.10;43.40;;;;;;5068524;28;20090;-83
2021/01/25 11:10:20;;;;;;;15.10;3.40;;;3.90;43.40;;;;;;5070568;28;20035;-83
2021/01/25 11:12:48;;;;;;;13.67;3.57;;;3.80;42.90;;;;;;5071539;28;20464;-82
2021/01/25 11:15:14;;;;;;;10.47;2.87;;;3.60;42.70;;;;;;5062391;28;20017;-83
2021/01/25 11:17:40;;;;;;;10.47;3.13;;;3.60;42.60;;;;;;5065046;28;20090;-82
2021/01/25 11:20:07;;;;;;;17.90;2.70;;;3.60;42.30;;;;;;5059425;28;20037;-82
2021/01/25 11:22:32;;;;;;;10.27;2.23;;;3.60;42.00;;;;;;5071529;28;20107;-82
2021/01/25 11:24:58;;;;;;;9.33;2.53;;;3.60;41.70;;;;;;5074033;28;20486;-82
2021/01/25 11:27:24;;;;;;;16.07;3.60;;;3.80;41.90;;;;;;5066123;28;20027;-82
2021/01/25 11:29:49;;;;;;;16.43;3.90;;;4.10;41.80;;;;;;5061388;28;20360;-82
2021/01/25 11:32:15;;;;;;;14.03;3.40;;;4.20;41.40;;;;;;5064293;28;20066;-82
2021/01/25 11:34:41;;;;;;;12.33;3.00;;;4.30;41.20;;;;;;5071008;28;20040;-82
2021/01/25 11:37:07;;;;;;;13.40;3.27;;;4.30;40.90;;;;;;5072644;28;20053;-82
2021/01/25 11:39:33;;;;;;;29.10;4.50;;;4.30;41.00;;;;;;5065610;28;20517;-82
2021/01/25 11:41:59;;;;;;;17.43;4.00;;;4.40;41.00;;;;;;5061625;28;20104;-82
2021/01/25 11:44:25;;;;;;;20.33;4.00;;;4.30;41.20;;;;;;5078255;28;20039;-83
2021/01/25 11:46:51;;;;;;;16.67;4.83;;;4.30;41.30;;;;;;5061451;28;20028;-82
2021/01/25 11:49:17;;;;;;;22.90;5.03;;;4.30;41.30;;;;;;5070571;28;20028;-82
2021/01/25 11:51:44;;;;;;;31.23;5.90;;;4.20;41.30;;;;;;5065481;28;20060;-82
2021/01/25 11:54:11;;;;;;;15.30;4.77;;;4.10;41.20;;;;;;5068594;28;20024;-83
2021/01/25 11:56:37;;;;;;;11.07;3.80;;;4.00;41.20;;;;;;5069606;28;20029;-83
2021/01/25 11:59:03;;;;;;;14.60;3.60;;;4.00;41.10;;;;;;5066403;28;20726;-82
2021/01/25 12:01:29;;;;;;;17.30;3.70;;;4.00;41.00;;;;;;5060983;28;20637;-82
2021/01/25 12:03:55;;;;;;;10.13;3.67;;;3.90;40.90;;;;;;5069677;28;20054;-82
2021/01/25 12:06:20;;;;;;;16.83;3.20;;;4.00;41.00;;;;;;5067108;28;20023;-82
2021/01/25 12:08:46;;;;;;;23.20;4.17;;;4.00;41.00;;;;;;5070507;28;20476;-83
2021/01/25 12:11:12;;;;;;;13.17;3.67;;;3.90;40.80;;;;;;5070959;28;20032;-83
2021/01/25 12:13:38;;;;;;;18.50;3.67;;;3.90;40.70;;;;;;5071858;28;20033;-82
2021/01/25 12:16:05;;;;;;;18.00;3.87;;;3.90;40.60;;;;;;5066896;28;20470;-82
2021/01/25 12:18:31;;;;;;;24.03;4.63;;;3.80;40.40;;;;;;5065156;28;20471;-82
2021/01/25 12:20:57;;;;;;;25.97;7.57;;;3.80;40.60;;;;;;5067308;28;20035;-82
2021/01/25 12:23:24;;;;;;;16.03;6.97;;;3.80;40.60;;;;;;5071447;28;20127;-82
2021/01/25 12:25:50;;;;;;;26.20;5.53;;;3.90;40.80;;;;;;5065549;28;20024;-82
2021/01/25 12:28:16;;;;;;;17.03;5.20;;;3.90;41.00;;;;;;5071984;28;20062;-82
2021/01/25 12:30:42;;;;;;;53.23;17.43;;;3.90;41.10;;;;;;5064471;28;20037;-82
2021/01/25 12:33:08;;;;;;;42.83;20.37;;;3.90;41.10;;;;;;5068155;28;20055;-82
2021/01/25 12:35:34;;;;;;;19.97;8.30;;;4.00;41.00;;;;;;5069783;28;20028;-82
2021/01/25 12:38:00;;;;;;;74.83;25.00;;;4.00;40.80;;;;;;5075506;28;20031;-81
2021/01/25 12:40:26;;;;;;;45.13;15.40;;;4.00;40.50;;;;;;5066841;28;20033;-82
2021/01/25 12:42:53;;;;;;;57.83;20.00;;;4.00;40.40;;;;;;5077296;28;20086;-82
2021/01/25 12:45:20;;;;;;;45.83;15.93;;;4.10;40.20;;;;;;5071549;28;20029;-82
2021/01/25 12:47:46;;;;;;;23.93;9.50;;;4.10;39.90;;;;;;5070504;28;20097;-82
2021/01/25 12:50:12;;;;;;;17.40;4.07;;;4.10;39.70;;;;;;5067839;28;20072;-82